createdAt,value
2022-09-21T00:01:31.579Z,7.64
2022-09-21T00:04:02.833Z,7.65
2022-09-21T00:06:34.293Z,7.66
2022-09-21T00:09:05.467Z,7.68
2022-09-21T00:11:35.701Z,7.68
2022-09-21T00:14:10.772Z,7.69
2022-09-21T00:16:41.299Z,7.70
2022-09-21T00:19:10.545Z,7.72
2022-09-21T00:21:39.010Z,7.74
2022-09-21T00:24:07.743Z,7.74
2022-09-21T00:26:35.599Z,7.75
2022-09-21T00:29:04.383Z,7.76
2022-09-21T00:31:33.298Z,7.77
2022-09-21T00:34:01.918Z,7.79
2022-09-21T00:36:29.755Z,7.81
2022-09-21T00:39:01.875Z,7.82
2022-09-21T00:41:32.825Z,7.80
2022-09-21T00:44:16.005Z,7.78
2022-09-21T00:46:46.793Z,7.79
2022-09-21T00:49:15.829Z,7.80
2022-09-21T00:51:44.655Z,7.81
2022-09-21T00:54:17.191Z,7.82
2022-09-21T00:56:45.694Z,7.82
2022-09-21T00:59:21.010Z,7.84
2022-09-21T01:01:50.142Z,7.88
2022-09-21T01:04:19.048Z,7.90
2022-09-21T01:06:50.463Z,7.92
2022-09-21T01:09:19.064Z,7.93
2022-09-21T01:12:03.104Z,7.93
2022-09-21T01:15:00.259Z,7.94
2022-09-21T01:17:51.918Z,7.95
2022-09-21T01:20:41.287Z,7.95
2022-09-21T01:23:15.215Z,7.98
2022-09-21T01:25:53.877Z,8.01
2022-09-21T01:28:56.158Z,8.04
2022-09-21T01:31:40.040Z,8.05
2022-09-21T01:34:18.879Z,8.08
2022-09-21T01:36:49.986Z,8.11
2022-09-21T01:39:21.838Z,8.12
2022-09-21T01:41:52.270Z,8.12
2022-09-21T01:44:24.004Z,8.12
2022-09-21T01:46:53.318Z,8.12
2022-09-21T01:49:36.616Z,8.11
2022-09-21T01:52:21.517Z,8.11
2022-09-21T01:54:56.683Z,8.14
2022-09-21T01:57:44.668Z,8.15
2022-09-21T02:00:13.350Z,8.17
2022-09-21T02:03:02.808Z,8.19
2022-09-21T02:05:30.880Z,8.18
2022-09-21T02:08:00.101Z,8.18
2022-09-21T02:10:39.260Z,8.18
2022-09-21T02:13:09.809Z,8.17
2022-09-21T02:15:43.608Z,8.15
2022-09-21T02:18:16.171Z,8.15
2022-09-21T02:20:52.476Z,8.14
2022-09-21T02:23:37.483Z,8.12
2022-09-21T02:26:13.523Z,8.09
2022-09-21T02:28:53.748Z,8.07
2022-09-21T02:31:21.554Z,8.05
2022-09-21T02:34:16.860Z,8.02
2022-09-21T02:36:50.087Z,8.01
2022-09-21T02:39:25.109Z,8.02
2022-09-21T02:42:07.731Z,8.04
2022-09-21T02:44:52.562Z,8.06
2022-09-21T02:47:27.144Z,8.08
2022-09-21T02:50:01.938Z,8.10
2022-09-21T02:52:32.563Z,8.12
2022-09-21T02:55:02.245Z,8.14
2022-09-21T02:57:31.173Z,8.15
2022-09-21T02:59:59.340Z,8.16
2022-09-21T03:02:37.514Z,8.17
2022-09-21T03:05:06.291Z,8.16
2022-09-21T03:07:34.517Z,8.15
2022-09-21T03:10:03.042Z,8.16
2022-09-21T03:12:32.903Z,8.17
2022-09-21T03:15:00.807Z,8.18
2022-09-21T03:17:28.703Z,8.19
2022-09-21T03:19:56.717Z,8.18
2022-09-21T03:22:24.980Z,8.17
2022-09-21T03:24:53.479Z,8.17
2022-09-21T03:27:22.387Z,8.18
2022-09-21T03:29:50.169Z,8.20
2022-09-21T03:32:18.084Z,8.21
2022-09-21T03:34:45.859Z,8.22
2022-09-21T03:37:13.750Z,8.23
2022-09-21T03:39:41.680Z,8.23
2022-09-21T03:42:10.501Z,8.24
2022-09-21T03:44:38.402Z,8.23
2022-09-21T03:47:06.839Z,8.22
2022-09-21T03:49:35.230Z,8.23
2022-09-21T03:52:03.955Z,8.23
2022-09-21T03:54:31.801Z,8.22
2022-09-21T03:56:59.779Z,8.21
2022-09-21T03:59:28.157Z,8.19
2022-09-21T04:01:56.155Z,8.16
2022-09-21T04:04:23.990Z,8.14
2022-09-21T04:06:52.240Z,8.12
2022-09-21T04:09:20.184Z,8.11
2022-09-21T04:11:48.525Z,8.10
2022-09-21T04:14:17.569Z,8.08
2022-09-21T04:16:45.439Z,8.05
2022-09-21T04:19:13.307Z,8.02
2022-09-21T04:21:41.195Z,8.00
2022-09-21T04:24:09.187Z,7.97
2022-09-21T04:26:37.126Z,7.94
2022-09-21T04:29:05.623Z,7.92
2022-09-21T04:31:34.231Z,7.88
2022-09-21T04:34:02.098Z,7.86
2022-09-21T04:36:34.330Z,7.87
2022-09-21T04:39:05.969Z,7.89
2022-09-21T04:41:34.225Z,7.93
2022-09-21T04:44:02.395Z,7.98
2022-09-21T04:46:30.709Z,8.03
2022-09-21T04:48:58.790Z,8.06
2022-09-21T04:51:26.648Z,8.09
2022-09-21T04:53:54.654Z,8.12
2022-09-21T04:56:22.600Z,8.15
2022-09-21T04:58:50.427Z,8.19
2022-09-21T05:01:18.314Z,8.22
2022-09-21T05:03:46.333Z,8.25
2022-09-21T05:06:15.166Z,8.27
2022-09-21T05:09:01.800Z,8.30
2022-09-21T05:11:29.991Z,8.37
2022-09-21T05:13:57.850Z,8.40
2022-09-21T05:16:25.647Z,8.43
2022-09-21T05:18:57.104Z,8.44
2022-09-21T05:21:25.059Z,8.47
2022-09-21T05:23:53.095Z,8.51
2022-09-21T05:26:21.039Z,8.56
2022-09-21T05:28:49.623Z,8.60
2022-09-21T05:31:18.437Z,8.65
2022-09-21T05:33:58.809Z,8.70
2022-09-21T05:36:36.133Z,8.73
2022-09-21T05:39:04.266Z,8.77
2022-09-21T05:41:32.547Z,8.79
2022-09-21T05:44:00.742Z,8.81
2022-09-21T05:46:41.758Z,8.85
2022-09-21T05:49:21.108Z,8.87
2022-09-21T05:52:27.488Z,8.90
2022-09-21T05:55:15.116Z,8.95
2022-09-21T05:58:13.861Z,8.98
2022-09-21T06:01:03.013Z,9.03
2022-09-21T06:03:32.461Z,9.08
2022-09-21T06:06:00.322Z,9.10
2022-09-21T06:08:28.435Z,9.11
2022-09-21T06:10:56.586Z,9.15
2022-09-21T06:13:24.491Z,9.15
2022-09-21T06:15:52.859Z,9.17
2022-09-21T06:18:20.737Z,9.25
2022-09-21T06:20:48.715Z,9.31
2022-09-21T06:23:16.583Z,9.34
2022-09-21T06:25:44.449Z,9.39
2022-09-21T06:28:13.720Z,9.43
2022-09-21T06:30:42.989Z,9.48
2022-09-21T06:33:11.133Z,9.51
2022-09-21T06:35:40.530Z,9.54
2022-09-21T06:38:08.436Z,9.56
2022-09-21T06:40:37.601Z,9.59
2022-09-21T06:43:06.013Z,9.64
2022-09-21T06:45:34.594Z,9.70
2022-09-21T06:48:02.710Z,9.78
2022-09-21T06:50:30.598Z,9.85
2022-09-21T06:53:02.803Z,9.87
2022-09-21T06:55:31.834Z,9.91
2022-09-21T06:58:02.191Z,9.96
2022-09-21T07:00:30.870Z,10.04
2022-09-21T07:02:59.863Z,10.10
2022-09-21T07:05:27.815Z,10.16
2022-09-21T07:07:59.318Z,10.23
2022-09-21T07:10:27.541Z,10.36
2022-09-21T07:12:55.684Z,10.51
2022-09-21T07:15:23.805Z,10.65
2022-09-21T07:17:59.108Z,10.81
2022-09-21T07:20:33.049Z,10.99
2022-09-21T07:23:01.930Z,11.12
2022-09-21T07:25:30.030Z,11.19
2022-09-21T07:28:01.288Z,11.28
2022-09-21T07:30:30.074Z,11.34
2022-09-21T07:32:58.884Z,11.41
2022-09-21T07:35:26.847Z,11.47
2022-09-21T07:37:57.631Z,11.51
2022-09-21T07:40:25.739Z,11.55
2022-09-21T07:42:58.135Z,11.57
2022-09-21T07:45:27.267Z,11.55
2022-09-21T07:47:56.650Z,11.52
2022-09-21T07:50:24.601Z,11.51
2022-09-21T07:52:52.639Z,11.57
2022-09-21T07:55:20.669Z,11.65
2022-09-21T07:58:08.830Z,11.74
2022-09-21T08:00:37.534Z,11.81
2022-09-21T08:03:06.827Z,11.87
2022-09-21T08:05:34.933Z,11.97
2022-09-21T08:08:02.967Z,12.12
2022-09-21T08:10:32.297Z,12.24
2022-09-21T08:13:00.231Z,12.34
2022-09-21T08:15:47.473Z,12.39
2022-09-21T08:18:16.206Z,12.39
2022-09-21T08:20:44.199Z,12.39
2022-09-21T08:23:12.733Z,12.47
2022-09-21T08:25:41.268Z,12.49
2022-09-21T08:28:10.166Z,12.47
2022-09-21T08:30:38.405Z,12.46
2022-09-21T08:33:07.240Z,12.48
2022-09-21T08:35:35.777Z,12.55
2022-09-21T08:38:03.732Z,12.64
2022-09-21T08:40:34.113Z,12.78
2022-09-21T08:43:28.327Z,12.90
2022-09-21T08:45:58.456Z,12.95
2022-09-21T08:48:36.599Z,12.97
2022-09-21T08:51:10.131Z,12.91
2022-09-21T08:53:40.668Z,12.90
2022-09-21T08:56:13.528Z,12.97
2022-09-21T08:58:42.619Z,13.03
2022-09-21T09:01:33.798Z,13.03
2022-09-21T09:04:05.892Z,12.94
2022-09-21T09:06:59.639Z,12.86
2022-09-21T09:09:56.088Z,12.89
2022-09-21T09:12:45.744Z,12.96
2022-09-21T09:15:38.530Z,13.06
2022-09-21T09:18:42.745Z,13.17
2022-09-21T09:21:16.318Z,13.28
2022-09-21T09:24:01.644Z,13.36
2022-09-21T09:26:44.461Z,13.31
2022-09-21T09:29:29.551Z,13.17
2022-09-21T09:32:01.460Z,13.01
2022-09-21T09:34:34.343Z,12.96
2022-09-21T09:37:27.758Z,12.93
2022-09-21T09:39:58.015Z,12.95
2022-09-21T09:42:34.704Z,13.03
2022-09-21T09:45:25.341Z,13.19
2022-09-21T09:48:02.733Z,13.37
2022-09-21T09:50:35.415Z,13.57
2022-09-21T09:53:19.115Z,13.78
2022-09-21T09:55:50.404Z,13.84
2022-09-21T09:58:26.024Z,13.80
2022-09-21T10:00:57.675Z,13.90
2022-09-21T10:03:27.931Z,14.06
2022-09-21T10:05:56.668Z,14.23
2022-09-21T10:08:33.596Z,14.36
2022-09-21T10:11:01.781Z,14.35
2022-09-21T10:13:34.205Z,14.29
2022-09-21T10:16:04.778Z,14.31
2022-09-21T10:18:45.168Z,14.36
2022-09-21T10:21:20.746Z,14.41
2022-09-21T10:23:53.054Z,14.45
2022-09-21T10:26:22.291Z,14.54
2022-09-21T10:28:56.300Z,14.69
2022-09-21T10:31:27.233Z,14.75
2022-09-21T10:34:16.347Z,14.73
2022-09-21T10:36:51.933Z,14.71
2022-09-21T10:39:21.428Z,14.68
2022-09-21T10:41:52.939Z,14.70
2022-09-21T10:44:26.990Z,14.76
2022-09-21T10:49:29.017Z,14.62
2022-09-21T10:51:59.529Z,14.39
2022-09-21T10:54:33.656Z,14.18
2022-09-21T10:57:07.762Z,14.08
2022-09-21T10:59:38.869Z,14.16
2022-09-21T11:02:38.775Z,14.31
2022-09-21T11:05:22.528Z,14.52
2022-09-21T11:08:22.648Z,14.67
2022-09-21T11:11:14.249Z,14.87
2022-09-21T11:13:54.463Z,15.01
2022-09-21T11:16:47.024Z,15.07
2022-09-21T11:19:25.491Z,15.02
2022-09-21T11:22:08.752Z,14.95
2022-09-21T11:24:42.935Z,14.95
2022-09-21T11:27:21.641Z,14.96
2022-09-21T11:29:49.351Z,14.95
2022-09-21T11:32:55.221Z,14.88
2022-09-21T11:35:53.139Z,14.80
2022-09-21T11:39:00.063Z,14.68
2022-09-21T11:41:36.992Z,14.52
2022-09-21T11:44:22.937Z,14.40
2022-09-21T11:47:05.699Z,14.34
2022-09-21T11:50:29.286Z,14.29
2022-09-21T11:53:11.678Z,14.19
2022-09-21T11:56:06.977Z,14.11
2022-09-21T11:58:53.268Z,14.05
2022-09-21T12:01:31.533Z,14.04
2022-09-21T12:04:17.908Z,14.07
2022-09-21T12:07:07.016Z,14.11
2022-09-21T12:09:56.826Z,14.10
2022-09-21T12:12:38.172Z,14.09
2022-09-21T12:15:18.628Z,14.05
2022-09-21T12:18:16.287Z,13.97
2022-09-21T12:20:44.137Z,13.85
2022-09-21T12:23:27.454Z,13.76
2022-09-21T12:25:58.827Z,13.66
2022-09-21T12:28:39.618Z,13.57
2022-09-21T12:31:26.721Z,13.53
2022-09-21T12:34:15.800Z,13.53
2022-09-21T12:36:52.816Z,13.56
2022-09-21T12:39:39.007Z,13.63
2022-09-21T12:42:28.521Z,13.72
2022-09-21T12:45:03.895Z,13.88
2022-09-21T12:47:51.755Z,14.02
2022-09-21T12:50:44.588Z,14.19
2022-09-21T12:53:20.599Z,14.36
2022-09-21T12:56:16.431Z,14.44
2022-09-21T12:59:12.732Z,14.42
2022-09-21T13:01:57.180Z,14.27
2022-09-21T13:04:43.416Z,14.10
2022-09-21T13:07:49.966Z,13.91
2022-09-21T13:10:45.420Z,13.72
2022-09-21T13:13:25.657Z,13.57
2022-09-21T13:15:53.903Z,13.54
2022-09-21T13:18:35.848Z,13.59
2022-09-21T13:21:26.549Z,13.70
2022-09-21T13:23:59.104Z,13.82
2022-09-21T13:26:31.132Z,13.92
2022-09-21T13:28:59.065Z,13.91
2022-09-21T13:31:41.906Z,13.88
2022-09-21T13:34:16.107Z,13.85
2022-09-21T13:36:43.864Z,13.78
2022-09-21T13:39:20.532Z,13.68
2022-09-21T13:42:04.121Z,13.56
2022-09-21T13:44:44.141Z,13.45
2022-09-21T13:47:12.626Z,13.40
2022-09-21T13:49:54.082Z,13.41
2022-09-21T13:52:32.495Z,13.46
2022-09-21T13:55:04.304Z,13.50
2022-09-21T13:57:45.629Z,13.57
2022-09-21T14:00:14.024Z,13.64
2022-09-21T14:02:51.720Z,13.68
2022-09-21T14:05:35.672Z,13.70
2022-09-21T14:08:18.252Z,13.68
2022-09-21T14:10:52.793Z,13.63
2022-09-21T14:13:37.596Z,13.59
2022-09-21T14:16:40.126Z,13.59
2022-09-21T14:19:17.159Z,13.59
2022-09-21T14:22:09.633Z,13.59
2022-09-21T14:24:47.148Z,13.62
2022-09-21T14:27:26.745Z,13.67
2022-09-21T14:30:08.147Z,13.70
2022-09-21T14:32:43.769Z,13.71
2022-09-21T14:35:24.096Z,13.70
2022-09-21T14:38:00.207Z,13.66
2022-09-21T14:40:36.893Z,13.61
2022-09-21T14:43:15.799Z,13.55
2022-09-21T14:46:02.475Z,13.43
2022-09-21T14:48:56.001Z,13.30
2022-09-21T14:51:38.440Z,13.12
2022-09-21T14:54:21.645Z,13.00
2022-09-21T14:56:54.809Z,12.86
2022-09-21T14:59:40.296Z,12.73
2022-09-21T15:02:23.702Z,12.61
2022-09-21T15:05:31.515Z,12.55
2022-09-21T15:08:30.006Z,12.47
2022-09-21T15:11:12.460Z,12.39
2022-09-21T15:14:11.324Z,12.31
2022-09-21T15:16:43.386Z,12.20
2022-09-21T15:19:21.786Z,12.10
2022-09-21T15:22:09.716Z,12.03
2022-09-21T15:24:37.678Z,11.96
2022-09-21T15:27:16.019Z,11.93
2022-09-21T15:29:49.109Z,11.91
2022-09-21T15:32:41.544Z,11.90
2022-09-21T15:35:15.349Z,11.89
2022-09-21T15:37:43.522Z,11.84
2022-09-21T15:40:26.654Z,11.80
2022-09-21T15:43:19.157Z,11.77
2022-09-21T15:45:46.930Z,11.73
2022-09-21T15:48:14.907Z,11.70
2022-09-21T15:50:45.054Z,11.63
2022-09-21T15:53:21.964Z,11.58
2022-09-21T15:55:50.669Z,11.55
2022-09-21T15:58:37.254Z,11.53
2022-09-21T16:01:17.251Z,11.49
2022-09-21T16:03:45.324Z,11.45
2022-09-21T16:06:22.548Z,11.41
2022-09-21T16:08:50.968Z,11.35
2022-09-21T16:11:37.974Z,11.30
2022-09-21T16:14:31.547Z,11.26
2022-09-21T16:17:15.144Z,11.24
2022-09-21T16:20:03.517Z,11.23
2022-09-21T16:22:47.676Z,11.19
2022-09-21T16:25:16.180Z,11.18
2022-09-21T16:27:52.457Z,11.16
2022-09-21T16:30:51.255Z,11.12
2022-09-21T16:33:41.268Z,11.06
2022-09-21T16:36:22.334Z,11.01
2022-09-21T16:38:50.596Z,10.97
2022-09-21T16:41:19.290Z,10.95
2022-09-21T16:43:47.265Z,10.94
2022-09-21T16:46:15.258Z,10.91
2022-09-21T16:48:44.452Z,10.89
2022-09-21T16:51:13.417Z,10.86
2022-09-21T16:53:41.573Z,10.80
2022-09-21T16:56:15.497Z,10.77
2022-09-21T16:58:45.267Z,10.74
2022-09-21T17:01:16.327Z,10.70
2022-09-21T17:03:46.565Z,10.64
2022-09-21T17:06:17.513Z,10.61
2022-09-21T17:08:49.672Z,10.58
2022-09-21T17:11:20.262Z,10.57
2022-09-21T17:13:50.018Z,10.55
2022-09-21T17:16:19.777Z,10.51
2022-09-21T17:18:48.943Z,10.48
2022-09-21T17:21:17.419Z,10.50
2022-09-21T17:23:46.327Z,10.47
2022-09-21T17:26:18.063Z,10.46
2022-09-21T17:28:46.214Z,10.42
2022-09-21T17:31:19.043Z,10.38
2022-09-21T17:33:50.413Z,10.35
2022-09-21T17:36:19.422Z,10.33
2022-09-21T17:38:47.377Z,10.28
2022-09-21T17:41:24.549Z,10.26
2022-09-21T17:43:58.604Z,10.21
2022-09-21T17:46:39.007Z,10.17
2022-09-21T17:49:10.846Z,10.12
2022-09-21T17:51:57.464Z,10.07
2022-09-21T17:54:25.719Z,10.04
2022-09-21T17:57:11.969Z,10.04
2022-09-21T17:59:42.362Z,10.06
2022-09-21T18:02:23.006Z,10.07
2022-09-21T18:04:58.292Z,10.07
2022-09-21T18:07:26.472Z,10.05
2022-09-21T18:09:55.357Z,10.00
2022-09-21T18:12:38.340Z,9.96
2022-09-21T18:15:25.118Z,9.91
2022-09-21T18:18:18.950Z,9.89
2022-09-21T18:21:04.819Z,9.88
2022-09-21T18:23:41.425Z,9.87
2022-09-21T18:26:13.451Z,9.86
2022-09-21T18:28:44.915Z,9.85
2022-09-21T18:31:18.704Z,9.84
2022-09-21T18:34:13.354Z,9.81
2022-09-21T18:37:12.773Z,9.78
2022-09-21T18:40:02.988Z,9.76
2022-09-21T18:42:45.230Z,9.73
2022-09-21T18:45:19.903Z,9.73
2022-09-21T18:47:50.992Z,9.75
2022-09-21T18:50:23.747Z,9.77
2022-09-21T18:53:06.802Z,9.75
2022-09-21T18:55:37.342Z,9.75
2022-09-21T18:58:05.351Z,9.73
2022-09-21T19:00:35.275Z,9.72
2022-09-21T19:03:23.619Z,9.70
2022-09-21T19:06:13.411Z,9.69
2022-09-21T19:08:54.876Z,9.70
2022-09-21T19:11:27.072Z,9.69
2022-09-21T19:14:00.138Z,9.69
2022-09-21T19:16:44.042Z,9.72
2022-09-21T19:19:38.141Z,9.73
2022-09-21T19:22:16.721Z,9.75
2022-09-21T19:24:58.674Z,9.77
2022-09-21T19:27:36.138Z,9.76
2022-09-21T19:30:13.995Z,9.76
2022-09-21T19:32:44.792Z,9.76
2022-09-21T19:35:20.677Z,9.74
2022-09-21T19:37:50.239Z,9.75
2022-09-21T19:40:21.470Z,9.76
2022-09-21T19:43:20.990Z,9.76
2022-09-21T19:46:26.625Z,9.74
2022-09-21T19:49:03.952Z,9.69
2022-09-21T19:51:54.023Z,9.66
2022-09-21T19:54:43.338Z,9.62
2022-09-21T19:57:36.088Z,9.61
2022-09-21T20:00:07.760Z,9.56
2022-09-21T20:03:05.961Z,9.55
2022-09-21T20:05:49.722Z,9.55
2022-09-21T20:08:36.409Z,9.53
2022-09-21T20:11:19.871Z,9.52
2022-09-21T20:14:00.227Z,9.54
2022-09-21T20:16:37.438Z,9.56
2022-09-21T20:19:39.133Z,9.59
2022-09-21T20:22:13.644Z,9.59
2022-09-21T20:25:00.941Z,9.61
2022-09-21T20:27:35.006Z,9.65
2022-09-21T20:30:06.030Z,9.68
2022-09-21T20:32:37.031Z,9.67
2022-09-21T20:35:23.658Z,9.66
2022-09-21T20:37:52.080Z,9.68
2022-09-21T20:40:24.660Z,9.69
2022-09-21T20:42:54.061Z,9.70
2022-09-21T20:45:22.841Z,9.72
2022-09-21T20:47:51.961Z,9.72
2022-09-21T20:50:20.832Z,9.69
2022-09-21T20:52:48.629Z,9.66
2022-09-21T20:55:17.732Z,9.65
2022-09-21T20:57:45.680Z,9.65
2022-09-21T21:00:15.512Z,9.68
2022-09-21T21:02:44.163Z,9.70
2022-09-21T21:05:12.137Z,9.72
2022-09-21T21:07:43.741Z,9.72
2022-09-21T21:10:14.350Z,9.70
2022-09-21T21:12:42.596Z,9.70
2022-09-21T21:15:12.509Z,9.71
2022-09-21T21:17:41.295Z,9.69
2022-09-21T21:20:10.137Z,9.68
2022-09-21T21:22:38.105Z,9.62
2022-09-21T21:25:06.335Z,9.59
2022-09-21T21:27:36.156Z,9.57
2022-09-21T21:30:04.649Z,9.57
2022-09-21T21:32:32.622Z,9.56
2022-09-21T21:35:00.536Z,9.54
2022-09-21T21:37:29.425Z,9.51
2022-09-21T21:39:57.342Z,9.50
2022-09-21T21:42:25.675Z,9.48
2022-09-21T21:44:53.547Z,9.48
2022-09-21T21:47:38.608Z,9.47
2022-09-21T21:50:08.037Z,9.44
2022-09-21T21:52:35.805Z,9.42
2022-09-21T21:55:04.993Z,9.41
2022-09-21T21:57:33.364Z,9.38
2022-09-21T22:00:01.411Z,9.38
2022-09-21T22:02:29.724Z,9.40
2022-09-21T22:04:57.680Z,9.41
2022-09-21T22:07:25.644Z,9.43
2022-09-21T22:09:53.579Z,9.45
2022-09-21T22:12:22.106Z,9.48
2022-09-21T22:14:49.921Z,9.50
2022-09-21T22:17:17.796Z,9.51
2022-09-21T22:19:45.656Z,9.52
2022-09-21T22:22:13.597Z,9.51
2022-09-21T22:24:41.455Z,9.52
2022-09-21T22:27:09.692Z,9.52
2022-09-21T22:29:37.490Z,9.53
2022-09-21T22:32:05.428Z,9.53
2022-09-21T22:34:33.295Z,9.53
2022-09-21T22:37:01.234Z,9.52
2022-09-21T22:39:29.094Z,9.52
2022-09-21T22:41:57.375Z,9.51
2022-09-21T22:44:25.212Z,9.52
2022-09-21T22:46:52.988Z,9.54
2022-09-21T22:49:20.809Z,9.55
2022-09-21T22:51:48.640Z,9.56
2022-09-21T22:54:16.485Z,9.56
2022-09-21T22:56:44.255Z,9.54
2022-09-21T22:59:12.178Z,9.54
2022-09-21T23:01:41.462Z,9.52
2022-09-21T23:04:12.003Z,9.52
2022-09-21T23:06:42.858Z,9.51
2022-09-21T23:09:20.537Z,9.51
2022-09-21T23:11:53.557Z,9.50
2022-09-21T23:14:23.338Z,9.48
2022-09-21T23:16:52.197Z,9.46
2022-09-21T23:19:20.414Z,9.44
2022-09-21T23:21:50.249Z,9.45
2022-09-21T23:24:19.908Z,9.47
2022-09-21T23:26:51.878Z,9.47
2022-09-21T23:29:19.945Z,9.49
2022-09-21T23:31:48.200Z,9.50
2022-09-21T23:34:16.750Z,9.53
2022-09-21T23:36:45.877Z,9.54
2022-09-21T23:39:15.611Z,9.56
2022-09-21T23:41:43.975Z,9.57
2022-09-21T23:44:12.017Z,9.57
2022-09-21T23:46:41.162Z,9.54
2022-09-21T23:49:09.849Z,9.52
2022-09-21T23:51:37.764Z,9.49
2022-09-21T23:54:05.787Z,9.49
2022-09-21T23:56:34.008Z,9.48
2022-09-21T23:59:02.145Z,9.48
